createdAt,value
2019-02-16T00:00:30.907Z,99355.25
2019-02-16T00:04:38.199Z,99358.89
2019-02-16T00:08:43.898Z,99355.16
2019-02-16T00:12:49.565Z,99351.96
2019-02-16T00:16:55.275Z,99354.56
2019-02-16T00:21:03.932Z,99356.45
2019-02-16T00:25:08.480Z,99355.03
2019-02-16T00:29:14.149Z,99349.64
2019-02-16T00:33:20.134Z,99346.17
2019-02-16T00:37:25.998Z,99349.36
2019-02-16T00:41:31.728Z,99348.02
2019-02-16T00:45:38.460Z,99345.69
2019-02-16T00:49:44.150Z,99343.42
2019-02-16T00:53:50.846Z,99337.53
2019-02-16T00:57:56.656Z,99334.75
2019-02-16T01:02:02.346Z,99329.95
2019-02-16T01:06:08.028Z,99323.38
2019-02-16T01:10:13.767Z,99327.78
2019-02-16T01:14:19.448Z,99325.27
2019-02-16T01:18:25.195Z,99324.99
2019-02-16T01:22:30.885Z,99325.77
2019-02-16T01:26:36.550Z,99316.62
2019-02-16T01:30:42.246Z,99316.01
2019-02-16T01:34:48.068Z,99316.78
2019-02-16T01:38:53.701Z,99324.14
2019-02-16T01:42:59.388Z,99318.22
2019-02-16T01:47:06.105Z,99319.14
2019-02-16T01:51:11.783Z,99314.41
2019-02-16T01:55:18.434Z,99310.58
2019-02-16T01:59:24.168Z,99303.31
2019-02-16T02:03:29.914Z,99307.72
2019-02-16T02:07:35.583Z,99302.36
2019-02-16T02:11:41.284Z,99293.09
2019-02-16T02:15:46.969Z,99292.83
2019-02-16T02:19:52.663Z,99285.33
2019-02-16T02:23:59.951Z,99284.86
2019-02-16T02:28:05.638Z,99288.48
2019-02-16T02:32:11.338Z,99294.78
2019-02-16T02:36:17.031Z,99293.09
2019-02-16T02:40:22.707Z,99290.25
2019-02-16T02:44:28.376Z,99291.88
2019-02-16T02:48:34.106Z,99289.36
2019-02-16T02:57:01.919Z,99295.05
2019-02-16T03:01:07.613Z,99290.31
2019-02-16T03:05:13.303Z,99295.75
2019-02-16T03:09:18.985Z,99294.98
2019-02-16T03:13:24.686Z,99287.36
2019-02-16T03:17:30.439Z,99296.30
2019-02-16T03:21:36.123Z,99291.74
2019-02-16T03:25:45.202Z,99293.50
2019-02-16T03:30:01.259Z,99292.59
2019-02-16T03:34:26.195Z,99293.34
2019-02-16T03:38:42.405Z,99293.98
2019-02-16T03:42:48.147Z,99304.22
2019-02-16T03:46:53.785Z,99299.13
2019-02-16T03:50:59.458Z,99303.80
2019-02-16T03:55:06.811Z,99302.81
2019-02-16T03:59:12.509Z,99302.23
2019-02-16T04:03:18.191Z,99297.77
2019-02-16T04:07:23.857Z,99303.67
2019-02-16T04:11:29.546Z,99303.73
2019-02-16T04:15:35.230Z,99303.61
2019-02-16T04:19:41.880Z,99306.35
2019-02-16T04:23:47.571Z,99301.36
2019-02-16T04:27:53.322Z,99305.78
2019-02-16T04:31:59.012Z,99299.62
2019-02-16T04:36:04.771Z,99300.81
2019-02-16T04:40:10.446Z,99297.55
2019-02-16T04:44:16.140Z,99303.45
2019-02-16T04:48:21.867Z,99300.09
2019-02-16T04:52:34.253Z,99304.58
2019-02-16T04:56:35.914Z,99304.05
2019-02-16T05:00:41.732Z,99306.80
2019-02-16T05:04:47.408Z,99300.89
2019-02-16T05:08:53.086Z,99305.15
2019-02-16T05:12:58.785Z,99304.45
2019-02-16T05:17:04.453Z,99303.16
2019-02-16T05:21:10.213Z,99309.77
2019-02-16T05:25:15.882Z,99316.14
2019-02-16T05:29:21.574Z,99316.72
2019-02-16T05:33:31.702Z,99320.50
2019-02-16T05:37:37.468Z,99319.17
2019-02-16T05:41:43.160Z,99312.69
2019-02-16T05:45:49.888Z,99320.36
2019-02-16T05:49:55.567Z,99310.52
2019-02-16T05:54:02.865Z,99313.19
2019-02-16T05:58:08.538Z,99311.19
2019-02-16T06:02:14.253Z,99310.50
2019-02-16T06:06:19.921Z,99315.05
2019-02-16T06:10:25.606Z,99315.44
2019-02-16T06:14:31.300Z,99318.91
2019-02-16T06:18:36.985Z,99314.17
2019-02-16T06:22:42.675Z,99307.06
2019-02-16T06:26:48.345Z,99306.64
2019-02-16T06:30:54.013Z,99316.75
2019-02-16T06:35:01.338Z,99319.78
2019-02-16T06:39:07.180Z,99316.38
2019-02-16T06:43:12.868Z,99323.81
2019-02-16T06:47:18.540Z,99325.72
2019-02-16T06:51:24.213Z,99326.72
2019-02-16T06:55:31.533Z,99323.92
2019-02-16T06:59:37.228Z,99334.42
2019-02-16T07:03:42.974Z,99334.30
2019-02-16T07:07:48.658Z,99341.70
2019-02-16T07:11:55.333Z,99347.83
2019-02-16T07:16:18.918Z,99344.70
2019-02-16T07:20:25.080Z,99347.98
2019-02-16T07:24:30.753Z,99340.78
2019-02-16T07:28:36.454Z,99342.73
2019-02-16T07:33:13.472Z,99340.80
2019-02-16T07:37:19.231Z,99331.60
2019-02-16T07:41:24.928Z,99335.61
2019-02-16T07:45:41.864Z,99335.33
2019-02-16T07:49:49.120Z,99338.08
2019-02-16T07:54:12.584Z,99342.82
2019-02-16T07:58:31.743Z,99343.36
2019-02-16T08:02:39.124Z,99349.83
2019-02-16T08:06:44.580Z,99350.28
2019-02-16T08:10:57.587Z,99334.43
2019-02-16T08:15:11.043Z,99337.16
2019-02-16T08:19:19.547Z,99344.53
2019-02-16T08:23:24.999Z,99345.03
2019-02-16T08:27:48.205Z,99345.11
2019-02-16T08:31:55.532Z,99348.08
2019-02-16T08:36:20.774Z,99340.14
2019-02-16T08:40:26.245Z,99338.84
2019-02-16T08:44:33.575Z,99338.07
2019-02-16T08:48:47.698Z,99339.25
2019-02-16T08:52:55.035Z,99339.28
2019-02-16T08:57:12.672Z,99338.55
2019-02-16T09:01:30.171Z,99333.72
2019-02-16T09:05:53.336Z,99331.17
2019-02-16T09:10:00.695Z,99328.13
2019-02-16T09:14:14.700Z,99328.05
2019-02-16T09:18:25.452Z,99320.96
2019-02-16T09:22:48.768Z,99324.14
2019-02-16T09:27:04.935Z,99314.84
2019-02-16T09:31:10.403Z,99314.03
2019-02-16T09:35:20.494Z,99311.06
2019-02-16T09:39:33.892Z,99300.20
2019-02-16T09:43:41.225Z,99306.69
2019-02-16T09:47:48.587Z,99300.42
2019-02-16T09:51:59.921Z,99306.20
2019-02-16T09:56:20.400Z,99302.13
2019-02-16T10:00:43.624Z,99303.77
2019-02-16T10:04:50.955Z,99300.73
2019-02-16T10:08:56.401Z,99297.68
2019-02-16T10:13:03.728Z,99308.83
2019-02-16T10:17:12.077Z,99306.56
2019-02-16T10:21:22.055Z,99308.73
2019-02-16T10:25:29.397Z,99300.63
2019-02-16T10:29:36.722Z,99302.58
2019-02-16T10:34:02.047Z,99296.75
2019-02-16T10:38:27.560Z,99295.64
2019-02-16T10:42:42.853Z,99306.11
2019-02-16T10:47:02.845Z,99308.03
2019-02-16T10:51:14.102Z,99302.92
2019-02-16T10:55:37.594Z,99302.52
2019-02-16T10:59:53.822Z,99303.77
2019-02-16T11:04:01.164Z,99304.09
2019-02-16T11:08:14.437Z,99296.05
2019-02-16T11:12:24.421Z,99295.50
2019-02-16T11:16:34.192Z,99283.69
2019-02-16T11:20:47.482Z,99281.00
2019-02-16T11:25:10.917Z,99277.87
2019-02-16T11:29:23.923Z,99270.36
2019-02-16T11:33:33.717Z,99274.23
2019-02-16T11:37:41.107Z,99268.43
2019-02-16T11:41:55.756Z,99255.19
2019-02-16T11:46:11.885Z,99266.09
2019-02-16T11:50:33.659Z,99273.35
2019-02-16T11:54:56.930Z,99262.27
2019-02-16T11:59:19.532Z,99256.90
2019-02-16T12:03:32.627Z,99247.34
2019-02-16T12:07:40.090Z,99245.93
2019-02-16T12:11:56.264Z,99237.36
2019-02-16T12:16:01.768Z,99242.06
2019-02-16T12:20:33.430Z,99228.29
2019-02-16T12:24:41.853Z,99223.08
2019-02-16T12:28:55.121Z,99210.59
2019-02-16T12:33:20.595Z,99215.23
2019-02-16T12:37:33.795Z,99213.66
2019-02-16T12:41:59.257Z,99203.36
2019-02-16T12:46:07.652Z,99195.71
2019-02-16T12:50:18.944Z,99195.00
2019-02-16T12:54:28.722Z,99185.73
2019-02-16T12:58:36.063Z,99177.04
2019-02-16T13:02:43.416Z,99180.00
2019-02-16T13:06:59.708Z,99176.53
2019-02-16T13:11:05.172Z,99176.61
2019-02-16T13:15:21.581Z,99170.17
2019-02-16T13:19:34.768Z,99173.45
2019-02-16T13:23:44.858Z,99169.22
2019-02-16T13:27:54.203Z,99162.17
2019-02-16T13:32:03.773Z,99158.20
2019-02-16T13:36:27.382Z,99157.16
2019-02-16T13:40:38.363Z,99156.83
2019-02-16T13:44:48.287Z,99152.60
2019-02-16T13:49:07.225Z,99159.84
2019-02-16T13:53:20.520Z,99155.92
2019-02-16T13:57:27.854Z,99154.20
2019-02-16T14:01:35.205Z,99151.47
2019-02-16T14:05:48.305Z,99149.70
2019-02-16T14:09:55.912Z,99148.16
2019-02-16T14:14:12.193Z,99143.05
2019-02-16T14:18:17.889Z,99140.07
2019-02-16T14:22:23.610Z,99137.83
2019-02-16T14:26:29.311Z,99132.72
2019-02-16T14:30:35.008Z,99127.94
2019-02-16T14:34:41.755Z,99118.64
2019-02-16T14:38:49.527Z,99123.64
2019-02-16T14:42:55.237Z,99114.74
2019-02-16T14:47:00.941Z,99117.87
2019-02-16T14:51:06.643Z,99121.04
2019-02-16T14:55:18.638Z,99127.02
2019-02-16T14:59:24.338Z,99127.74
2019-02-16T15:03:30.030Z,99127.27
2019-02-16T15:07:35.717Z,99126.27
2019-02-16T15:11:41.615Z,99115.09
2019-02-16T15:15:47.328Z,99108.07
2019-02-16T15:19:53.027Z,99114.77
2019-02-16T15:23:58.732Z,99107.16
2019-02-16T15:28:04.514Z,99106.16
2019-02-16T15:32:10.221Z,99115.52
2019-02-16T15:36:23.714Z,99105.27
2019-02-16T15:40:23.314Z,99101.30
2019-02-16T15:44:29.051Z,99104.30
2019-02-16T15:48:34.711Z,99101.59
2019-02-16T15:52:40.554Z,99093.71
2019-02-16T15:56:46.275Z,99099.19
2019-02-16T16:00:52.170Z,99092.66
2019-02-16T16:05:18.924Z,99099.48
2019-02-16T16:09:38.304Z,99102.81
2019-02-16T16:14:34.500Z,99100.09
2019-02-16T16:23:29.024Z,99099.13
2019-02-16T16:42:35.678Z,99093.56
2019-02-16T16:47:17.191Z,99099.48
2019-02-16T16:51:25.518Z,99099.72
2019-02-16T16:55:33.016Z,99097.41
2019-02-16T16:59:41.373Z,99111.13
2019-02-16T17:04:30.444Z,99110.51
2019-02-16T17:09:19.984Z,99116.42
2019-02-16T17:13:28.380Z,99125.56
2019-02-16T17:17:35.725Z,99131.02
2019-02-16T17:22:16.473Z,99131.84
2019-02-16T17:26:37.843Z,99141.25
2019-02-16T17:30:48.000Z,99137.47
2019-02-16T17:34:55.337Z,99142.58
2019-02-16T17:40:15.690Z,99140.89
2019-02-16T17:44:28.854Z,99147.45
2019-02-16T17:55:16.107Z,99147.94
2019-02-16T17:59:38.072Z,99153.02
2019-02-16T18:04:18.321Z,99154.00
2019-02-16T18:08:23.792Z,99153.78
2019-02-16T18:13:19.446Z,99150.43
2019-02-16T18:17:35.705Z,99148.34
2019-02-16T18:22:19.084Z,99146.98
2019-02-16T18:26:26.435Z,99144.47
2019-02-16T18:36:20.210Z,99154.75
2019-02-16T18:40:42.198Z,99150.91
2019-02-16T18:45:04.678Z,99141.16
2019-02-16T18:49:36.708Z,99140.52
2019-02-16T18:54:15.417Z,99139.02
2019-02-16T18:58:25.161Z,99136.25
2019-02-16T19:02:35.412Z,99129.94
2019-02-16T19:06:50.342Z,99125.55
2019-02-16T19:11:13.767Z,99127.38
2019-02-16T19:15:25.025Z,99120.27
2019-02-16T19:19:32.388Z,99122.44
2019-02-16T19:28:20.607Z,99126.47
2019-02-16T19:32:30.658Z,99120.88
2019-02-16T19:36:40.724Z,99117.77
2019-02-16T19:40:49.016Z,99118.92
2019-02-16T19:45:14.999Z,99118.92
2019-02-16T19:49:40.348Z,99113.22
2019-02-16T19:54:21.675Z,99114.59
2019-02-16T19:58:38.132Z,99110.50
2019-02-16T20:03:01.230Z,99115.14
2019-02-16T20:07:09.539Z,99112.01
2019-02-16T20:11:34.494Z,99110.41
2019-02-16T20:15:47.852Z,99121.77
2019-02-16T20:20:03.992Z,99124.13
2019-02-16T20:24:35.324Z,99114.06
2019-02-16T20:28:42.722Z,99120.70
2019-02-16T20:32:50.114Z,99115.42
2019-02-16T20:37:00.157Z,99120.44
2019-02-16T20:41:07.598Z,99116.78
2019-02-16T20:45:17.949Z,99115.91
2019-02-16T20:49:34.038Z,99116.16
2019-02-16T20:53:41.428Z,99113.66
2019-02-16T20:57:48.917Z,99114.58
2019-02-16T21:01:59.641Z,99113.19
2019-02-16T21:06:12.511Z,99107.42
2019-02-16T21:10:31.848Z,99110.02
2019-02-16T21:14:41.669Z,99106.16
2019-02-16T21:18:51.936Z,99109.41
2019-02-16T21:22:59.146Z,99103.17
2019-02-16T21:27:24.383Z,99103.55
2019-02-16T21:31:43.471Z,99104.47
2019-02-16T21:35:53.506Z,99097.52
2019-02-16T21:40:03.878Z,99101.05
2019-02-16T21:44:24.230Z,99097.56
2019-02-16T21:48:47.460Z,99093.11
2019-02-16T21:52:55.647Z,99094.29
2019-02-16T22:24:59.009Z,99078.86
2019-02-16T22:39:23.511Z,99078.64
2019-02-16T22:44:17.110Z,99078.66
2019-02-16T22:48:22.793Z,99083.52
2019-02-16T22:52:28.500Z,99080.03
2019-02-16T22:56:34.345Z,99080.42
2019-02-16T23:00:47.230Z,99071.48
2019-02-16T23:04:54.613Z,99070.91
2019-02-16T23:09:00.305Z,99080.25
2019-02-16T23:13:08.209Z,99081.59
2019-02-16T23:17:14.946Z,99078.29
2019-02-16T23:21:20.758Z,99071.72
2019-02-16T23:25:30.318Z,99065.89
2019-02-16T23:29:33.868Z,99069.20
2019-02-16T23:33:39.623Z,99068.61
2019-02-16T23:37:45.400Z,99066.67
2019-02-16T23:41:51.098Z,99064.55
2019-02-16T23:45:56.768Z,99066.49
2019-02-16T23:50:02.469Z,99065.33
2019-02-16T23:54:08.157Z,99069.20
2019-02-16T23:58:13.858Z,99068.41
